Time;durP1;ratioP1;P1;durP2;ratioP2;P2;SDS_P1;SDS_P2;PMS_P1;PMS_P2;Temp;Humidity;BMP_temperature;BMP_pressure;BME280_temperature;BME280_humidity;BME280_pressure;Samples;Min_cycle;Max_cycle;Signal;HPM_P1;HPM_P2
2020/12/16 00:02:25;;;;;;;19.17;10.97;;;;;;;0.72;100.00;97886.24;1769450;80;20898;-75
2020/12/16 00:04:52;;;;;;;20.67;11.50;;;;;;;0.74;100.00;97885.73;1769420;79;21115;-75
2020/12/16 00:07:20;;;;;;;24.47;12.83;;;;;;;0.76;100.00;97894.67;1769382;81;20977;-76
2020/12/16 00:09:47;;;;;;;27.63;14.43;;;;;;;0.78;100.00;97892.44;1769410;81;20933;-75
2020/12/16 00:12:15;;;;;;;37.90;13.73;;;;;;;0.80;100.00;97893.66;1769526;81;20926;-75
2020/12/16 00:14:44;;;;;;;26.30;12.23;;;;;;;0.79;100.00;97891.99;1769391;80;21005;-75
2020/12/16 00:17:11;;;;;;;22.37;12.23;;;;;;;0.79;100.00;97894.55;1766518;80;22370;-75
2020/12/16 00:19:38;;;;;;;24.80;13.27;;;;;;;0.78;100.00;97897.56;1718325;81;21143;-75
2020/12/16 00:22:05;;;;;;;18.57;10.33;;;;;;;0.78;100.00;97896.28;1742665;81;21307;-75
2020/12/16 00:24:32;;;;;;;23.05;14.33;;;;;;;0.80;100.00;97898.33;1761521;81;20984;-75
2020/12/16 00:27:00;;;;;;;32.03;15.53;;;;;;;0.84;100.00;97898.63;1761590;81;21391;-75
2020/12/16 00:29:27;;;;;;;23.77;11.70;;;;;;;0.89;100.00;97911.70;1761511;81;21194;-75
2020/12/16 00:31:54;;;;;;;55.30;25.50;;;;;;;0.89;100.00;97901.46;1761522;81;20902;-75
2020/12/16 00:34:21;;;;;;;30.57;19.33;;;;;;;0.88;100.00;97894.67;1761539;81;20993;-75
2020/12/16 00:36:48;;;;;;;31.80;13.67;;;;;;;0.88;100.00;97893.39;1761497;81;21152;-75
2020/12/16 00:39:16;;;;;;;22.00;13.30;;;;;;;0.84;100.00;97887.11;1761565;81;21060;-75
2020/12/16 00:41:43;;;;;;;37.20;23.77;;;;;;;0.84;100.00;97893.95;1761525;81;21289;-75
2020/12/16 00:44:10;;;;;;;21.77;12.73;;;;;;;0.86;100.00;97886.22;1761490;81;21092;-75
2020/12/16 00:46:38;;;;;;;39.70;22.87;;;;;;;0.85;100.00;97885.38;1761534;81;21308;-75
2020/12/16 00:49:05;;;;;;;36.10;21.82;;;;;;;0.85;100.00;97882.83;1761530;81;21284;-75
2020/12/16 00:51:32;;;;;;;49.95;26.65;;;;;;;0.87;100.00;97877.64;1761530;80;20937;-75
2020/12/16 00:54:00;;;;;;;20.70;12.37;;;;;;;0.84;100.00;97873.47;1761532;81;21001;-75
2020/12/16 00:56:27;;;;;;;27.80;16.27;;;;;;;0.83;100.00;97876.93;1761406;81;20909;-75
2020/12/16 00:58:54;;;;;;;21.68;13.13;;;;;;;0.81;100.00;97866.72;1761658;81;20927;-75
2020/12/16 01:01:21;;;;;;;24.52;13.15;;;;;;;0.82;100.00;97870.94;1761502;81;20985;-75
2020/12/16 01:03:49;;;;;;;29.32;19.12;;;;;;;0.80;100.00;97870.17;1761552;81;21450;-75
2020/12/16 01:06:16;;;;;;;27.87;13.58;;;;;;;0.79;100.00;97871.51;1761517;81;21141;-75
2020/12/16 01:08:43;;;;;;;18.80;10.13;;;;;;;0.77;100.00;97863.89;1742385;81;20969;-74
2020/12/16 01:11:10;;;;;;;32.13;19.93;;;;;;;0.74;100.00;97862.70;1761513;81;22185;-75
2020/12/16 01:13:38;;;;;;;28.25;15.93;;;;;;;0.72;100.00;97861.09;1761482;81;21335;-75
2020/12/16 01:16:08;;;;;;;24.30;13.10;;;;;;;0.72;100.00;97861.09;1761300;81;21068;-75
2020/12/16 01:18:37;;;;;;;23.63;12.90;;;;;;;0.75;100.00;97864.39;1782573;78;22227;-75
2020/12/16 01:21:05;;;;;;;21.85;14.13;;;;;;;0.76;100.00;97867.79;1749932;81;21466;-75
2020/12/16 01:23:35;;;;;;;33.90;18.57;;;;;;;0.75;100.00;97861.84;1768191;79;20941;-75
2020/12/16 01:26:02;;;;;;;22.75;13.43;;;;;;;0.74;100.00;97861.41;1769313;80;21032;-75
2020/12/16 01:28:31;;;;;;;24.23;12.43;;;;;;;0.75;100.00;97862.28;1769117;81;21005;-75
2020/12/16 01:31:01;;;;;;;19.73;11.20;;;;;;;0.73;100.00;97858.47;1769393;81;21390;-75
2020/12/16 01:33:29;;;;;;;21.10;12.40;;;;;;;0.72;100.00;97863.20;1769337;80;21012;-75
2020/12/16 01:36:01;;;;;;;21.37;12.73;;;;;;;0.71;100.00;97855.58;1768819;80;21020;-75
2020/12/16 01:38:28;;;;;;;21.63;11.77;;;;;;;0.75;100.00;97857.16;1750280;80;21020;-75
2020/12/16 01:41:04;;;;;;;22.42;12.23;;;;;;;0.79;100.00;97853.59;1769457;80;20929;-75
2020/12/16 01:43:37;;;;;;;20.50;12.47;;;;;;;0.79;100.00;97848.47;1749984;81;21980;-75
2020/12/16 01:46:06;;;;;;;21.62;11.63;;;;;;;0.78;100.00;97862.16;1769334;80;21336;-75
2020/12/16 01:48:35;;;;;;;25.63;14.43;;;;;;;0.76;100.00;97854.98;1769327;81;20923;-75
2020/12/16 01:51:02;;;;;;;22.63;13.33;;;;;;;0.70;100.00;97849.63;1769378;81;21359;-75
2020/12/16 01:53:30;;;;;;;25.50;13.77;;;;;;;0.69;100.00;97854.36;1769412;81;21490;-76
2020/12/16 01:55:58;;;;;;;25.43;11.60;;;;;;;0.69;100.00;97859.93;1769316;81;21216;-75
2020/12/16 01:58:27;;;;;;;20.12;11.35;;;;;;;0.68;100.00;97860.83;1767510;80;20972;-75
2020/12/16 02:00:55;;;;;;;18.67;10.27;;;;;;;0.67;100.00;97852.31;1769377;79;20933;-75
2020/12/16 02:03:23;;;;;;;26.70;16.27;;;;;;;0.70;100.00;97850.08;1769442;81;20972;-75
2020/12/16 02:05:58;;;;;;;30.60;15.20;;;;;;;0.71;100.00;97853.86;1768661;80;20914;-75
2020/12/16 02:08:27;;;;;;;21.17;12.17;;;;;;;0.73;100.00;97846.95;1769352;80;21430;-75
2020/12/16 02:10:55;;;;;;;18.33;10.13;;;;;;;0.71;100.00;97853.02;1769323;81;20922;-75
2020/12/16 02:13:24;;;;;;;21.77;12.50;;;;;;;0.67;100.00;97852.31;1769318;79;20915;-74
2020/12/16 02:15:53;;;;;;;20.23;11.80;;;;;;;0.67;100.00;97851.03;1769284;80;21092;-75
2020/12/16 02:18:21;;;;;;;33.43;20.50;;;;;;;0.69;100.00;97847.13;1764782;80;21096;-75
2020/12/16 02:20:50;;;;;;;25.20;15.28;;;;;;;0.69;100.00;97838.17;1761559;81;21391;-75
2020/12/16 02:23:18;;;;;;;21.57;13.00;;;;;;;0.70;100.00;97836.83;1742521;81;20930;-75
2020/12/16 02:25:46;;;;;;;27.22;17.70;;;;;;;0.73;100.00;97838.44;1761662;80;21327;-75
2020/12/16 02:28:14;;;;;;;36.75;14.38;;;;;;;0.75;100.00;97825.16;1742892;81;20917;-75
2020/12/16 02:30:43;;;;;;;24.90;14.33;;;;;;;0.74;100.00;97818.34;1761748;81;21049;-76
2020/12/16 02:33:29;;;;;;;23.10;12.28;;;;;;;0.73;100.00;97829.03;1761747;81;21764;-75
2020/12/16 02:35:58;;;;;;;23.50;13.85;;;;;;;0.72;100.00;97831.20;1761016;81;20934;-75
2020/12/16 02:38:27;;;;;;;17.47;9.50;;;;;;;0.75;100.00;97834.13;1760954;81;20941;-75
2020/12/16 02:40:55;;;;;;;14.40;8.00;;;;;;;0.77;100.00;97833.16;1761636;81;21209;-75
2020/12/16 02:43:22;;;;;;;23.07;10.13;;;;;;;0.76;100.00;97835.78;1761669;81;20970;-75
2020/12/16 02:45:49;;;;;;;20.90;9.77;;;;;;;0.73;100.00;97837.98;1761634;81;21431;-75
2020/12/16 02:48:18;;;;;;;24.27;11.57;;;;;;;0.73;100.00;97825.19;1761389;80;21087;-75
2020/12/16 02:50:46;;;;;;;17.67;9.58;;;;;;;0.73;100.00;97827.75;1761636;80;21304;-75
2020/12/16 02:53:13;;;;;;;17.65;10.05;;;;;;;0.72;100.00;97824.80;1761579;81;21379;-75
2020/12/16 02:55:58;;;;;;;17.12;10.25;;;;;;;0.72;100.00;97823.97;1709061;84;20959;-76
2020/12/16 02:58:27;;;;;;;16.62;9.45;;;;;;;0.69;100.00;97827.48;1745319;81;21473;-74
2020/12/16 03:00:54;;;;;;;15.63;8.93;;;;;;;0.67;100.00;97831.00;1761559;81;20938;-74
2020/12/16 03:03:36;;;;;;;16.75;9.55;;;;;;;0.67;100.00;97840.79;1759638;81;21091;-75
2020/12/16 03:06:20;;;;;;;19.70;9.65;;;;;;;0.67;100.00;97835.67;1717846;80;21143;-74
2020/12/16 03:08:49;;;;;;;19.37;10.50;;;;;;;0.67;100.00;97842.07;1761067;81;21546;-74
2020/12/16 03:11:18;;;;;;;18.67;10.60;;;;;;;0.64;100.00;97843.44;1761627;81;21758;-74
2020/12/16 03:13:47;;;;;;;21.77;9.83;;;;;;;0.59;100.00;97841.51;1761508;81;21119;-75
2020/12/16 03:16:19;;;;;;;17.85;10.88;;;;;;;0.57;100.00;97843.27;1761579;81;20989;-75
2020/12/16 03:18:49;;;;;;;25.70;14.77;;;;;;;0.55;100.00;97841.20;1761581;81;20981;-76
2020/12/16 03:21:24;;;;;;;17.37;9.07;;;;;;;0.53;100.00;97839.98;1761622;81;20930;-75
2020/12/16 03:23:53;;;;;;;18.37;9.43;;;;;;;0.56;100.00;97840.31;1760515;81;21373;-75
2020/12/16 03:26:28;;;;;;;26.90;10.53;;;;;;;0.61;100.00;97835.05;1760106;81;21331;-75
2020/12/16 03:29:03;;;;;;;23.42;9.90;;;;;;;0.66;100.00;97832.70;1759619;81;21159;-74
2020/12/16 03:31:33;;;;;;;33.02;16.42;;;;;;;0.68;100.00;97834.78;1730836;80;20933;-75
2020/12/16 03:34:07;;;;;;;17.95;10.03;;;;;;;0.71;100.00;97832.09;1760781;81;21052;-74
2020/12/16 03:36:43;;;;;;;17.87;10.20;;;;;;;0.68;100.00;97838.62;1759848;81;21391;-75
2020/12/16 03:39:10;;;;;;;19.27;10.73;;;;;;;0.63;100.00;97836.66;1761561;81;21009;-75
2020/12/16 03:41:37;;;;;;;17.25;9.35;;;;;;;0.65;100.00;97842.99;1761699;81;20921;-75
2020/12/16 03:44:06;;;;;;;17.75;9.58;;;;;;;0.63;100.00;97839.22;1761556;81;21324;-75
2020/12/16 03:46:36;;;;;;;20.35;12.65;;;;;;;0.63;100.00;97850.73;1760881;80;20910;-75
2020/12/16 03:49:03;;;;;;;17.80;10.25;;;;;;;0.62;100.00;97837.55;1761687;81;21768;-74
2020/12/16 03:51:33;;;;;;;26.82;14.73;;;;;;;0.61;100.00;97841.00;1761290;80;21124;-74
2020/12/16 03:54:01;;;;;;;35.48;18.07;;;;;;;0.60;100.00;97839.34;1761581;81;20977;-74
2020/12/16 03:56:33;;;;;;;20.72;11.50;;;;;;;0.61;100.00;97839.72;1760306;81;21395;-74
2020/12/16 03:59:05;;;;;;;21.40;11.50;;;;;;;0.61;100.00;97835.87;1756081;81;21064;-75
2020/12/16 04:01:38;;;;;;;19.70;10.68;;;;;;;0.62;100.00;97832.88;1760708;81;21336;-75
2020/12/16 04:04:05;;;;;;;21.13;12.47;;;;;;;0.64;100.00;97829.81;1761503;81;21335;-75
2020/12/16 04:06:35;;;;;;;28.07;17.97;;;;;;;0.68;100.00;97830.94;1761262;81;21044;-75
2020/12/16 04:09:06;;;;;;;21.65;12.88;;;;;;;0.74;100.00;97824.30;1761530;81;20977;-74
2020/12/16 04:11:39;;;;;;;23.63;13.67;;;;;;;0.81;100.00;97828.31;1760428;81;20906;-75
2020/12/16 04:14:08;;;;;;;31.33;17.57;;;;;;;0.87;100.00;97823.87;1760050;81;21253;-75
2020/12/16 04:16:37;;;;;;;38.40;15.87;;;;;;;0.86;100.00;97827.32;1761564;80;21048;-75
2020/12/16 04:19:06;;;;;;;25.73;15.77;;;;;;;0.85;99.81;97829.05;1761053;80;20929;-75
2020/12/16 04:21:33;;;;;;;22.42;12.75;;;;;;;0.82;99.66;97832.98;1761535;81;20981;-74
2020/12/16 04:24:00;;;;;;;23.23;11.60;;;;;;;0.78;99.54;97834.83;1761599;81;20977;-75
2020/12/16 04:26:44;;;;;;;21.02;10.45;;;;;;;0.73;99.52;97832.87;1760040;81;21200;-74
2020/12/16 04:29:13;;;;;;;22.48;11.83;;;;;;;0.70;99.69;97839.39;1761463;81;21092;-74
2020/12/16 04:31:40;;;;;;;24.63;11.87;;;;;;;0.68;99.77;97847.58;1761554;80;20958;-74
2020/12/16 04:34:08;;;;;;;21.37;11.57;;;;;;;0.67;99.78;97849.75;1761568;80;20906;-74
2020/12/16 04:36:36;;;;;;;20.37;10.75;;;;;;;0.66;99.90;97844.21;1761535;80;20914;-75
2020/12/16 04:39:04;;;;;;;22.93;11.93;;;;;;;0.68;100.00;97850.14;1761567;80;21200;-75
2020/12/16 04:41:31;;;;;;;22.20;12.27;;;;;;;0.69;100.00;97847.97;1761403;81;20981;-75
2020/12/16 04:44:00;;;;;;;23.97;12.77;;;;;;;0.70;99.99;97844.95;1760607;81;21111;-75
2020/12/16 04:46:30;;;;;;;32.48;16.25;;;;;;;0.69;100.00;97847.97;1761551;81;21406;-75
2020/12/16 04:48:58;;;;;;;28.33;14.77;;;;;;;0.70;99.96;97845.79;1761562;81;20906;-74
2020/12/16 04:51:30;;;;;;;24.98;13.75;;;;;;;0.67;99.83;97853.59;1761188;81;21521;-75
2020/12/16 04:53:57;;;;;;;24.63;12.77;;;;;;;0.67;99.86;97851.48;1742559;80;21324;-74
2020/12/16 04:56:26;;;;;;;25.40;14.63;;;;;;;0.69;99.96;97853.53;1761134;81;20913;-75
2020/12/16 04:59:05;;;;;;;27.50;15.10;;;;;;;0.69;99.99;97862.49;1761483;80;20930;-75
2020/12/16 05:01:40;;;;;;;22.90;12.77;;;;;;;0.68;100.00;97856.54;1761387;80;21421;-76
2020/12/16 05:04:09;;;;;;;30.72;18.95;;;;;;;0.73;100.00;97861.48;1761562;81;21308;-75
2020/12/16 05:06:41;;;;;;;28.03;17.83;;;;;;;0.79;100.00;97867.22;1760444;81;21480;-75
2020/12/16 05:09:13;;;;;;;33.03;15.03;;;;;;;0.85;100.00;97870.02;1761601;81;20905;-75
2020/12/16 05:11:44;;;;;;;26.23;13.50;;;;;;;0.89;100.00;97868.17;1761732;81;20965;-75
2020/12/16 05:14:16;;;;;;;26.95;14.33;;;;;;;0.90;99.79;97866.00;1761607;81;21139;-75
2020/12/16 05:17:04;;;;;;;25.60;12.90;;;;;;;0.89;99.54;97863.88;1761472;81;21122;-75
2020/12/16 05:19:39;;;;;;;26.40;14.67;;;;;;;0.88;99.30;97871.62;1761192;80;21073;-75
2020/12/16 05:22:31;;;;;;;22.48;12.10;;;;;;;0.82;99.21;97870.94;1761684;81;20898;-75
2020/12/16 05:24:59;;;;;;;23.90;13.17;;;;;;;0.79;99.19;97876.63;1761536;81;20910;-76
2020/12/16 05:27:29;;;;;;;22.67;11.53;;;;;;;0.75;99.30;97874.64;1761524;81;21083;-76
2020/12/16 05:29:59;;;;;;;22.40;13.00;;;;;;;0.75;99.45;97871.24;1761609;81;22184;-76
2020/12/16 05:32:29;;;;;;;23.53;12.77;;;;;;;0.77;99.47;97874.58;1761590;81;20929;-75
2020/12/16 05:34:57;;;;;;;24.80;12.87;;;;;;;0.80;99.56;97877.02;1761523;81;20926;-75
2020/12/16 05:37:35;;;;;;;30.87;14.40;;;;;;;0.83;99.46;97881.60;1761468;81;20933;-76
2020/12/16 05:40:06;;;;;;;25.70;16.63;;;;;;;0.83;99.24;97884.61;1761611;80;21219;-75
2020/12/16 05:42:34;;;;;;;22.90;11.57;;;;;;;0.83;99.14;97887.17;1761526;81;21180;-75
2020/12/16 05:45:19;;;;;;;20.72;10.90;;;;;;;0.82;99.06;97888.03;1761447;81;20997;-75
2020/12/16 05:48:03;;;;;;;20.00;11.20;;;;;;;0.81;99.03;97896.61;1760896;81;20894;-76
2020/12/16 05:50:51;;;;;;;22.33;12.43;;;;;;;0.78;99.04;97897.56;1763231;80;20938;-76
2020/12/16 05:53:25;;;;;;;22.37;13.07;;;;;;;0.80;99.18;97891.09;1784850;80;21021;-76
2020/12/16 05:56:01;;;;;;;24.30;13.40;;;;;;;0.80;99.16;97888.09;1792752;80;21362;-76
2020/12/16 05:58:32;;;;;;;30.50;14.15;;;;;;;0.83;99.31;97888.00;1776845;79;21175;-75
2020/12/16 06:01:05;;;;;;;31.63;13.77;;;;;;;0.85;99.21;97886.66;1777185;80;21136;-76
2020/12/16 06:03:39;;;;;;;23.37;12.80;;;;;;;0.83;98.99;97888.00;1778849;80;21028;-80
2020/12/16 06:06:10;;;;;;;27.87;15.87;;;;;;;0.81;99.06;97891.48;1776437;80;20914;-79
2020/12/16 06:08:43;;;;;;;30.73;20.90;;;;;;;0.81;99.08;97894.05;1766679;80;21182;-78
2020/12/16 06:11:13;;;;;;;24.00;13.18;;;;;;;0.80;99.15;97885.53;1779896;80;21151;-74
2020/12/16 06:13:46;;;;;;;24.13;12.90;;;;;;;0.83;99.19;97898.25;1778375;78;21187;-74
2020/12/16 06:16:13;;;;;;;20.43;11.63;;;;;;;0.83;99.10;97894.41;1786648;78;21164;-78
2020/12/16 06:18:44;;;;;;;22.57;12.20;;;;;;;0.85;99.16;97905.87;1786513;78;21136;-75
2020/12/16 06:21:14;;;;;;;22.53;11.47;;;;;;;0.84;99.12;97908.05;1791280;78;21011;-84
2020/12/16 06:23:43;;;;;;;28.87;11.93;;;;;;;0.82;99.00;97908.52;1787586;79;21166;-75
2020/12/16 06:26:16;;;;;;;25.40;11.80;;;;;;;0.81;99.10;97905.13;1785953;79;21149;-76
2020/12/16 06:28:44;;;;;;;27.77;15.38;;;;;;;0.82;99.12;97909.34;1792519;78;21157;-78
2020/12/16 06:31:29;;;;;;;22.20;11.27;;;;;;;0.86;99.18;97914.38;1791750;78;21142;-81
2020/12/16 06:34:04;;;;;;;26.10;14.10;;;;;;;0.89;99.17;97907.86;1698662;82;21213;-77
2020/12/16 06:36:37;;;;;;;24.65;13.28;;;;;;;0.92;99.16;97909.89;1732897;80;21220;-78
2020/12/16 06:39:19;;;;;;;28.87;15.45;;;;;;;0.95;99.00;97913.61;1744286;81;21141;-79
2020/12/16 06:41:58;;;;;;;23.75;13.05;;;;;;;0.96;98.99;97915.72;1773776;78;21103;-80
2020/12/16 06:44:26;;;;;;;20.12;10.55;;;;;;;0.95;98.51;97912.33;1775680;79;21143;-81
2020/12/16 06:46:58;;;;;;;21.07;11.97;;;;;;;0.90;98.52;97909.53;1794412;78;21447;-79
2020/12/16 06:49:27;;;;;;;25.25;14.33;;;;;;;0.89;98.63;97909.14;1759707;78;21155;-78
2020/12/16 06:52:02;;;;;;;26.00;12.55;;;;;;;0.91;98.81;97911.20;1751831;79;21151;-82
2020/12/16 06:54:41;;;;;;;21.52;11.35;;;;;;;0.99;99.10;97913.04;1784213;79;21154;-81
2020/12/16 06:57:18;;;;;;;24.15;13.18;;;;;;;1.03;98.89;97915.45;1767252;81;21184;-80
2020/12/16 06:59:59;;;;;;;23.03;11.57;;;;;;;1.05;98.65;97916.67;1777496;79;21184;-78
2020/12/16 07:02:32;;;;;;;25.13;12.87;;;;;;;1.07;98.56;97913.61;1727557;83;21168;-78
2020/12/16 07:05:03;;;;;;;22.10;13.77;;;;;;;1.08;98.34;97922.98;1744075;82;21172;-78
2020/12/16 07:07:56;;;;;;;24.90;14.87;;;;;;;1.08;98.22;97922.98;1751227;80;21163;-84
2020/12/16 07:10:41;;;;;;;20.40;11.33;;;;;;;1.07;98.04;97925.13;1784470;78;21526;-79
2020/12/16 07:13:18;;;;;;;22.25;12.33;;;;;;;1.07;98.08;97920.84;1785674;79;21485;-79
2020/12/16 07:16:02;;;;;;;21.77;11.10;;;;;;;1.08;98.03;97920.42;1790934;78;21116;-80
2020/12/16 07:18:34;;;;;;;22.93;9.97;;;;;;;1.09;98.06;97920.37;1789891;78;21159;-83
2020/12/16 07:21:16;;;;;;;22.55;10.80;;;;;;;1.09;97.85;97922.09;1781731;78;21159;-82
2020/12/16 07:23:55;;;;;;;24.70;11.33;;;;;;;1.06;97.54;97920.45;1775121;78;21182;-78
2020/12/16 07:26:43;;;;;;;24.12;10.38;;;;;;;1.04;97.73;97917.56;1780554;79;21246;-79
2020/12/16 07:29:38;;;;;;;24.10;12.67;;;;;;;1.05;97.88;97912.83;1785463;80;21122;-80
2020/12/16 07:32:11;;;;;;;26.10;14.18;;;;;;;1.07;97.82;97913.61;1780812;78;21117;-80
2020/12/16 07:34:51;;;;;;;18.90;10.82;;;;;;;1.08;97.84;97907.62;1779948;78;21139;-79
2020/12/16 07:37:29;;;;;;;21.77;11.10;;;;;;;1.08;97.76;97912.74;1781423;80;21142;-78
2020/12/16 07:40:10;;;;;;;22.23;12.90;;;;;;;1.14;97.84;97908.66;1875645;76;22785;-77
2020/12/16 07:42:34;;;;;;;20.77;11.87;;;;;;;1.13;97.88;97914.67;1837205;77;21328;-81
2020/12/16 07:45:08;;;;;;;30.30;12.97;;;;;;;1.12;97.60;97916.84;1835591;77;21337;-78
2020/12/16 07:47:36;;;;;;;23.30;11.90;;;;;;;1.13;97.83;97913.39;1836036;77;21453;-77
2020/12/16 07:50:11;;;;;;;22.93;12.33;;;;;;;1.16;97.90;97917.14;1837909;77;21406;-77
2020/12/16 07:52:39;;;;;;;19.37;10.03;;;;;;;1.20;97.91;97925.09;1769875;80;21466;-78
2020/12/16 07:55:07;;;;;;;20.43;10.77;;;;;;;1.22;97.72;97928.42;1763897;80;21013;-79
2020/12/16 07:57:44;;;;;;;18.73;10.43;;;;;;;1.22;97.56;97927.15;1778788;80;21180;-76
2020/12/16 08:00:22;;;;;;;21.43;10.60;;;;;;;1.23;97.57;97927.53;1775221;80;20926;-78
2020/12/16 08:03:03;;;;;;;19.40;9.97;;;;;;;1.23;97.29;97924.97;1774175;80;21006;-84
2020/12/16 08:05:31;;;;;;;18.20;9.78;;;;;;;1.20;97.06;97931.95;1773121;80;21041;-79
2020/12/16 08:08:01;;;;;;;21.00;11.73;;;;;;;1.15;97.11;97927.42;1768519;80;21120;-80
2020/12/16 08:10:29;;;;;;;22.03;11.90;;;;;;;1.16;97.35;97926.11;1795191;79;21368;-76
2020/12/16 08:12:56;;;;;;;19.67;10.77;;;;;;;1.20;97.48;97926.38;1798497;79;21193;-78
2020/12/16 08:15:23;;;;;;;20.63;11.57;;;;;;;1.20;97.19;97928.10;1772086;80;21036;-80
2020/12/16 08:17:52;;;;;;;20.70;10.03;;;;;;;1.15;96.79;97938.50;1777633;80;20918;-81
2020/12/16 08:20:24;;;;;;;19.67;10.43;;;;;;;1.12;97.02;97943.30;1772705;80;21691;-80
2020/12/16 08:22:59;;;;;;;30.45;11.93;;;;;;;1.13;97.15;97938.56;1790858;79;20941;-81
2020/12/16 08:25:26;;;;;;;;;;;;;;;1.13;97.21;97939.01;1788603;79;21182;-80
2020/12/16 08:27:55;;;;;;;20.67;10.83;;;;;;;1.14;97.02;97938.11;1771382;81;20220;-82
2020/12/16 08:30:28;;;;;;;19.93;10.13;;;;;;;1.15;97.16;97942.34;1750244;80;21100;-81
2020/12/16 08:33:06;;;;;;;21.50;10.23;;;;;;;1.20;97.22;97946.03;1796580;79;21241;-81
2020/12/16 08:36:00;;;;;;;18.57;10.10;;;;;;;1.20;97.10;97953.28;1797043;79;21979;-84
2020/12/16 08:38:37;;;;;;;20.10;11.53;;;;;;;1.21;97.12;97956.22;1773940;79;21091;-81
2020/12/16 08:41:06;;;;;;;27.53;12.03;;;;;;;1.23;97.24;97955.72;1766497;80;21072;-80
2020/12/16 08:43:36;;;;;;;25.07;12.30;;;;;;;1.26;97.32;97954.80;1782855;80;21226;-79
2020/12/16 08:46:07;;;;;;;27.05;14.80;;;;;;;1.28;97.23;97948.71;1785039;78;21155;-79
2020/12/16 08:49:02;;;;;;;20.63;11.70;;;;;;;1.29;97.32;97945.70;1787828;79;22185;-80
2020/12/16 08:51:37;;;;;;;23.27;13.22;;;;;;;1.31;97.13;97943.47;1793357;79;21162;-76
2020/12/16 08:54:09;;;;;;;23.83;14.45;;;;;;;1.34;97.40;97939.53;1794470;79;21041;-79
2020/12/16 08:56:54;;;;;;;21.97;13.25;;;;;;;1.39;97.42;97943.19;1758957;81;21045;-78
2020/12/16 08:59:26;;;;;;;20.75;10.50;;;;;;;1.44;97.12;97945.59;1736914;81;21166;-79
2020/12/16 09:01:54;;;;;;;19.50;11.08;;;;;;;1.40;96.54;97946.97;1762002;81;21266;-79
2020/12/16 09:04:25;;;;;;;20.73;11.27;;;;;;;1.35;96.25;97955.30;1726145;81;21168;-82
2020/12/16 09:07:04;;;;;;;21.70;11.57;;;;;;;1.33;96.37;97953.69;1735992;81;21094;-81
2020/12/16 09:09:38;;;;;;;19.67;10.80;;;;;;;1.31;96.25;97951.59;1788621;79;21032;-80
2020/12/16 09:12:17;;;;;;;20.23;11.53;;;;;;;1.30;96.51;97959.73;1796038;79;21451;-80
2020/12/16 09:14:54;;;;;;;20.75;11.68;;;;;;;1.35;96.57;97957.85;1786823;79;21199;-79
2020/12/16 09:17:30;;;;;;;23.90;13.32;;;;;;;1.34;96.30;97951.51;1786099;79;21419;-78
2020/12/16 09:19:57;;;;;;;;;;;;;;;1.33;96.66;97949.39;1791401;79;21277;-80
2020/12/16 09:22:27;;;;;;;32.00;12.77;;;;;;;1.39;96.82;97944.02;1787277;79;20435;-78
2020/12/16 09:24:57;;;;;;;21.13;11.80;;;;;;;1.42;96.79;97945.66;1785321;79;21482;-79
2020/12/16 09:27:25;;;;;;;19.60;10.43;;;;;;;1.45;96.46;97948.55;1734066;82;21380;-77
2020/12/16 09:29:55;;;;;;;23.20;12.05;;;;;;;1.43;96.18;97944.77;1746399;81;21183;-80
2020/12/16 09:32:25;;;;;;;19.75;10.98;;;;;;;1.43;96.06;97945.20;1726785;81;21461;-80
2020/12/16 09:34:54;;;;;;;18.65;9.98;;;;;;;1.41;96.02;97941.42;1792716;79;21417;-81
2020/12/16 09:37:28;;;;;;;22.67;12.45;;;;;;;1.44;95.96;97950.72;1798264;79;21153;-77
2020/12/16 09:40:15;;;;;;;25.30;12.68;;;;;;;1.46;96.08;97946.37;1818975;77;21252;-80
2020/12/16 09:43:01;;;;;;;28.42;13.10;;;;;;;1.51;95.99;97947.05;1816869;78;21136;-84
2020/12/16 09:45:31;;;;;;;21.93;12.43;;;;;;;1.51;95.88;97938.91;1822707;77;21096;-79
2020/12/16 09:48:01;;;;;;;19.67;10.75;;;;;;;1.58;95.88;97942.08;1822547;77;21491;-79
2020/12/16 09:50:36;;;;;;;21.62;12.43;;;;;;;1.59;95.54;97929.65;1824367;77;21172;-74
2020/12/16 09:53:07;;;;;;;19.12;9.83;;;;;;;1.61;95.27;97925.30;1803862;78;21384;-75
2020/12/16 09:55:45;;;;;;;20.25;10.30;;;;;;;1.62;95.16;97921.83;1814489;77;21151;-79
2020/12/16 09:58:13;;;;;;;17.00;9.13;;;;;;;1.64;94.94;97926.45;1813514;78;21176;-77
2020/12/16 10:00:41;;;;;;;18.62;10.48;;;;;;;1.63;94.46;97924.78;1815674;78;20995;-79
2020/12/16 10:03:12;;;;;;;20.70;10.78;;;;;;;1.55;93.89;97928.91;1820531;78;21128;-79
2020/12/16 10:05:40;;;;;;;21.17;11.33;;;;;;;1.51;94.26;97926.54;1806042;78;21834;-77
2020/12/16 10:08:14;;;;;;;19.40;10.25;;;;;;;1.49;94.44;97923.17;1818890;77;21472;-79
2020/12/16 10:10:43;;;;;;;21.30;11.38;;;;;;;1.45;94.45;97926.76;1815097;78;20923;-80
2020/12/16 10:13:11;;;;;;;23.38;12.10;;;;;;;1.39;94.72;97923.52;1799723;78;21171;-77
2020/12/16 10:15:38;;;;;;;18.00;10.20;;;;;;;1.38;95.16;97924.86;1808560;78;21128;-78
2020/12/16 10:18:06;;;;;;;22.93;12.68;;;;;;;1.43;95.35;97918.30;1814252;78;21658;-78
2020/12/16 10:20:33;;;;;;;25.57;15.15;;;;;;;1.45;95.42;97931.88;1760486;79;21214;-80
2020/12/16 10:23:02;;;;;;;25.27;14.40;;;;;;;1.47;95.43;97934.77;1757043;81;21146;-77
2020/12/16 10:25:33;;;;;;;21.95;12.82;;;;;;;1.50;95.57;97930.00;1749895;79;21577;-76
2020/12/16 10:28:01;;;;;;;20.77;11.30;;;;;;;1.53;95.39;97927.31;1791267;79;21174;-80
2020/12/16 10:30:29;;;;;;;23.42;12.75;;;;;;;1.52;95.24;97924.36;1784679;79;21371;-79
2020/12/16 10:32:57;;;;;;;23.50;13.30;;;;;;;1.52;95.42;97920.06;1754924;80;21171;-78
2020/12/16 10:35:26;;;;;;;21.57;12.23;;;;;;;1.51;95.05;97922.25;1770060;80;21171;-78
2020/12/16 10:38:15;;;;;;;20.15;10.93;;;;;;;1.52;95.09;97925.64;1772570;80;21360;-79
2020/12/16 10:41:02;;;;;;;19.85;10.68;;;;;;;1.53;95.08;97928.14;1755581;80;21139;-78
2020/12/16 10:43:32;;;;;;;22.65;13.20;;;;;;;1.57;94.66;97933.97;1746474;82;21207;-81
2020/12/16 10:46:08;;;;;;;23.18;13.03;;;;;;;1.56;94.50;97925.90;1752464;80;21135;-80
2020/12/16 10:48:39;;;;;;;23.32;12.33;;;;;;;1.57;94.57;97912.19;1734634;80;21162;-80
2020/12/16 10:51:07;;;;;;;21.10;11.20;;;;;;;1.58;94.60;97919.84;1752797;80;21025;-81
2020/12/16 10:53:35;;;;;;;20.90;11.63;;;;;;;1.60;94.33;97922.34;1746773;82;21588;-81
2020/12/16 10:56:03;;;;;;;23.00;13.00;;;;;;;1.59;94.34;97920.67;1746652;80;22257;-80
2020/12/16 10:58:34;;;;;;;22.52;12.10;;;;;;;1.63;94.48;97910.68;1751698;80;21198;-80
2020/12/16 11:01:02;;;;;;;23.52;13.83;;;;;;;1.69;94.42;97910.00;1764267;80;21159;-82
2020/12/16 11:03:29;;;;;;;23.67;13.32;;;;;;;1.73;94.27;97919.68;1754870;80;21163;-84
2020/12/16 11:05:57;;;;;;;24.20;13.80;;;;;;;1.78;94.16;97924.65;1751638;80;21709;-81
2020/12/16 11:08:26;;;;;;;25.83;13.17;;;;;;;1.78;93.97;97917.78;1773510;79;21634;-80
2020/12/16 11:10:59;;;;;;;23.80;13.85;;;;;;;1.81;93.90;97918.11;1768046;80;21054;-78
2020/12/16 11:13:26;;;;;;;22.55;11.60;;;;;;;1.84;93.74;97918.01;1760858;80;21202;-78
2020/12/16 11:15:53;;;;;;;21.48;11.60;;;;;;;1.82;93.37;97929.61;1755468;80;21558;-78
2020/12/16 11:18:20;;;;;;;20.80;10.93;;;;;;;1.78;93.39;97924.20;1762145;80;21037;-79
2020/12/16 11:20:48;;;;;;;24.35;11.78;;;;;;;1.79;93.50;97927.15;1756239;80;21244;-79
2020/12/16 11:23:15;;;;;;;24.95;12.98;;;;;;;1.83;93.60;97931.28;1778919;79;21634;-78
2020/12/16 11:25:42;;;;;;;24.67;12.93;;;;;;;1.85;93.54;97932.05;1766486;80;21210;-81
2020/12/16 11:28:13;;;;;;;22.25;11.78;;;;;;;1.89;93.70;97931.02;1757075;80;21175;-80
2020/12/16 11:30:44;;;;;;;22.35;12.88;;;;;;;1.91;93.38;97933.55;1758342;78;21155;-78
2020/12/16 11:33:09;;;;;;;24.32;13.43;;;;;;;1.91;93.23;97929.25;1775336;78;21659;-78
2020/12/16 11:35:36;;;;;;;27.77;15.28;;;;;;;1.92;93.13;97934.77;1784981;78;21178;-78
2020/12/16 11:38:03;;;;;;;25.00;14.15;;;;;;;1.91;93.13;97931.81;1789077;79;21136;-77
2020/12/16 11:40:31;;;;;;;27.00;15.88;;;;;;;1.94;93.01;97930.85;1778781;78;21162;-79
2020/12/16 11:42:59;;;;;;;24.50;15.10;;;;;;;1.95;92.80;97935.92;1800786;78;21119;-77
2020/12/16 11:45:37;;;;;;;24.43;14.47;;;;;;;1.98;92.91;97935.78;1787101;78;21156;-81